sensor_id;sensor_type;location;lat;lon;timestamp;P1;durP1;ratioP1;P2;durP2;ratioP2
76574;SDS011;65439;50.948;6.988;2023-04-25T00:00:31;9.47;;;4.33;;
76574;SDS011;65439;50.948;6.988;2023-04-25T00:02:56;11.77;;;4.47;;
76574;SDS011;65439;50.948;6.988;2023-04-25T00:05:22;15.30;;;5.55;;
76574;SDS011;65439;50.948;6.988;2023-04-25T00:07:48;13.65;;;4.82;;
76574;SDS011;65439;50.948;6.988;2023-04-25T00:10:14;14.75;;;4.68;;
76574;SDS011;65439;50.948;6.988;2023-04-25T00:12:40;10.85;;;4.18;;
76574;SDS011;65439;50.948;6.988;2023-04-25T00:15:06;7.85;;;4.03;;
76574;SDS011;65439;50.948;6.988;2023-04-25T00:17:31;8.88;;;4.43;;
76574;SDS011;65439;50.948;6.988;2023-04-25T00:19:57;11.40;;;4.57;;
76574;SDS011;65439;50.948;6.988;2023-04-25T00:22:23;8.35;;;5.10;;
76574;SDS011;65439;50.948;6.988;2023-04-25T00:24:48;9.23;;;5.07;;
76574;SDS011;65439;50.948;6.988;2023-04-25T00:27:14;11.60;;;4.75;;
76574;SDS011;65439;50.948;6.988;2023-04-25T00:29:39;11.75;;;4.43;;
76574;SDS011;65439;50.948;6.988;2023-04-25T00:32:04;8.30;;;4.60;;
76574;SDS011;65439;50.948;6.988;2023-04-25T00:34:30;15.93;;;5.30;;
76574;SDS011;65439;50.948;6.988;2023-04-25T00:36:55;13.70;;;5.30;;
76574;SDS011;65439;50.948;6.988;2023-04-25T00:39:21;10.85;;;4.70;;
76574;SDS011;65439;50.948;6.988;2023-04-25T00:41:47;17.73;;;5.47;;
76574;SDS011;65439;50.948;6.988;2023-04-25T00:44:13;14.82;;;5.68;;
76574;SDS011;65439;50.948;6.988;2023-04-25T00:46:39;8.95;;;5.55;;
76574;SDS011;65439;50.948;6.988;2023-04-25T00:49:05;13.60;;;5.05;;
76574;SDS011;65439;50.948;6.988;2023-04-25T00:51:30;12.32;;;5.65;;
76574;SDS011;65439;50.948;6.988;2023-04-25T00:53:56;9.25;;;5.00;;
76574;SDS011;65439;50.948;6.988;2023-04-25T00:56:21;11.55;;;5.47;;
76574;SDS011;65439;50.948;6.988;2023-04-25T00:58:47;15.50;;;5.45;;
76574;SDS011;65439;50.948;6.988;2023-04-25T01:01:13;14.32;;;5.60;;
76574;SDS011;65439;50.948;6.988;2023-04-25T01:03:39;11.23;;;5.68;;
76574;SDS011;65439;50.948;6.988;2023-04-25T01:06:08;12.82;;;4.93;;
76574;SDS011;65439;50.948;6.988;2023-04-25T01:08:34;13.15;;;5.15;;
76574;SDS011;65439;50.948;6.988;2023-04-25T01:11:00;14.90;;;5.13;;
76574;SDS011;65439;50.948;6.988;2023-04-25T01:13:25;16.73;;;5.30;;
76574;SDS011;65439;50.948;6.988;2023-04-25T01:15:50;8.67;;;4.40;;
76574;SDS011;65439;50.948;6.988;2023-04-25T01:18:16;20.42;;;5.60;;
76574;SDS011;65439;50.948;6.988;2023-04-25T01:20:41;14.10;;;5.63;;
76574;SDS011;65439;50.948;6.988;2023-04-25T01:23:06;13.25;;;5.20;;
76574;SDS011;65439;50.948;6.988;2023-04-25T01:25:32;10.13;;;4.80;;
76574;SDS011;65439;50.948;6.988;2023-04-25T01:27:58;11.20;;;5.35;;
76574;SDS011;65439;50.948;6.988;2023-04-25T01:30:24;12.35;;;4.90;;
76574;SDS011;65439;50.948;6.988;2023-04-25T01:32:50;11.00;;;5.78;;
76574;SDS011;65439;50.948;6.988;2023-04-25T01:35:16;8.55;;;4.47;;
76574;SDS011;65439;50.948;6.988;2023-04-25T01:37:41;10.70;;;5.30;;
76574;SDS011;65439;50.948;6.988;2023-04-25T01:40:08;12.93;;;5.22;;
76574;SDS011;65439;50.948;6.988;2023-04-25T01:42:35;10.73;;;4.80;;
76574;SDS011;65439;50.948;6.988;2023-04-25T01:45:01;12.95;;;5.05;;
76574;SDS011;65439;50.948;6.988;2023-04-25T01:47:27;11.77;;;5.95;;
76574;SDS011;65439;50.948;6.988;2023-04-25T01:49:52;14.18;;;5.35;;
76574;SDS011;65439;50.948;6.988;2023-04-25T01:52:18;19.33;;;5.23;;
76574;SDS011;65439;50.948;6.988;2023-04-25T01:54:43;12.60;;;5.10;;
76574;SDS011;65439;50.948;6.988;2023-04-25T01:57:10;9.18;;;4.97;;
76574;SDS011;65439;50.948;6.988;2023-04-25T01:59:36;10.40;;;4.65;;
76574;SDS011;65439;50.948;6.988;2023-04-25T02:02:01;10.80;;;4.80;;
76574;SDS011;65439;50.948;6.988;2023-04-25T02:04:28;8.25;;;4.97;;
76574;SDS011;65439;50.948;6.988;2023-04-25T02:06:54;11.52;;;5.38;;
76574;SDS011;65439;50.948;6.988;2023-04-25T02:09:19;13.07;;;5.23;;
76574;SDS011;65439;50.948;6.988;2023-04-25T02:11:45;7.97;;;4.47;;
76574;SDS011;65439;50.948;6.988;2023-04-25T02:14:10;13.60;;;4.93;;
76574;SDS011;65439;50.948;6.988;2023-04-25T02:16:35;11.60;;;5.40;;
76574;SDS011;65439;50.948;6.988;2023-04-25T02:19:01;9.57;;;5.30;;
76574;SDS011;65439;50.948;6.988;2023-04-25T02:21:26;8.88;;;4.28;;
76574;SDS011;65439;50.948;6.988;2023-04-25T02:23:52;11.77;;;5.03;;
76574;SDS011;65439;50.948;6.988;2023-04-25T02:26:17;13.05;;;5.40;;
76574;SDS011;65439;50.948;6.988;2023-04-25T02:28:42;12.35;;;4.97;;
76574;SDS011;65439;50.948;6.988;2023-04-25T02:31:08;12.85;;;5.13;;
76574;SDS011;65439;50.948;6.988;2023-04-25T02:33:33;14.40;;;4.40;;
76574;SDS011;65439;50.948;6.988;2023-04-25T02:35:59;10.02;;;6.40;;
76574;SDS011;65439;50.948;6.988;2023-04-25T02:38:24;9.18;;;4.90;;
76574;SDS011;65439;50.948;6.988;2023-04-25T02:40:50;12.00;;;5.30;;
76574;SDS011;65439;50.948;6.988;2023-04-25T02:43:15;14.37;;;5.07;;
76574;SDS011;65439;50.948;6.988;2023-04-25T02:45:41;12.48;;;5.57;;
76574;SDS011;65439;50.948;6.988;2023-04-25T02:48:06;12.20;;;5.22;;
76574;SDS011;65439;50.948;6.988;2023-04-25T02:50:31;11.33;;;4.20;;
76574;SDS011;65439;50.948;6.988;2023-04-25T02:52:57;7.10;;;3.90;;
76574;SDS011;65439;50.948;6.988;2023-04-25T02:55:22;9.40;;;3.97;;
76574;SDS011;65439;50.948;6.988;2023-04-25T02:57:47;11.93;;;4.17;;
76574;SDS011;65439;50.948;6.988;2023-04-25T03:00:13;10.30;;;5.67;;
76574;SDS011;65439;50.948;6.988;2023-04-25T03:02:39;7.50;;;3.75;;
76574;SDS011;65439;50.948;6.988;2023-04-25T03:05:04;9.45;;;4.53;;
76574;SDS011;65439;50.948;6.988;2023-04-25T03:07:29;10.07;;;3.70;;
76574;SDS011;65439;50.948;6.988;2023-04-25T03:09:55;4.63;;;3.60;;
76574;SDS011;65439;50.948;6.988;2023-04-25T03:12:21;6.13;;;3.72;;
76574;SDS011;65439;50.948;6.988;2023-04-25T03:14:46;8.50;;;3.70;;
76574;SDS011;65439;50.948;6.988;2023-04-25T03:17:12;7.03;;;5.07;;
76574;SDS011;65439;50.948;6.988;2023-04-25T03:19:37;5.77;;;3.90;;
76574;SDS011;65439;50.948;6.988;2023-04-25T03:22:02;10.07;;;4.07;;
76574;SDS011;65439;50.948;6.988;2023-04-25T03:24:28;12.17;;;3.87;;
76574;SDS011;65439;50.948;6.988;2023-04-25T03:26:53;6.27;;;3.60;;
76574;SDS011;65439;50.948;6.988;2023-04-25T03:29:18;6.43;;;4.20;;
76574;SDS011;65439;50.948;6.988;2023-04-25T03:31:44;11.00;;;4.50;;
76574;SDS011;65439;50.948;6.988;2023-04-25T03:34:09;11.63;;;3.92;;
76574;SDS011;65439;50.948;6.988;2023-04-25T03:36:34;8.43;;;4.35;;
76574;SDS011;65439;50.948;6.988;2023-04-25T03:39:00;11.93;;;4.57;;
76574;SDS011;65439;50.948;6.988;2023-04-25T03:41:25;13.63;;;5.03;;
76574;SDS011;65439;50.948;6.988;2023-04-25T03:43:51;7.97;;;3.85;;
76574;SDS011;65439;50.948;6.988;2023-04-25T03:46:16;15.57;;;4.80;;
76574;SDS011;65439;50.948;6.988;2023-04-25T03:48:41;8.93;;;3.97;;
76574;SDS011;65439;50.948;6.988;2023-04-25T03:51:07;7.78;;;4.47;;
76574;SDS011;65439;50.948;6.988;2023-04-25T03:53:32;9.47;;;4.10;;
76574;SDS011;65439;50.948;6.988;2023-04-25T03:55:57;11.20;;;5.10;;
76574;SDS011;65439;50.948;6.988;2023-04-25T03:58:22;8.90;;;4.60;;
76574;SDS011;65439;50.948;6.988;2023-04-25T04:00:49;10.70;;;5.00;;
76574;SDS011;65439;50.948;6.988;2023-04-25T04:03:14;8.52;;;4.75;;
76574;SDS011;65439;50.948;6.988;2023-04-25T04:05:39;13.73;;;6.23;;
76574;SDS011;65439;50.948;6.988;2023-04-25T04:08:05;10.32;;;5.30;;
76574;SDS011;65439;50.948;6.988;2023-04-25T04:10:31;9.88;;;4.95;;
76574;SDS011;65439;50.948;6.988;2023-04-25T04:12:56;7.30;;;4.83;;
76574;SDS011;65439;50.948;6.988;2023-04-25T04:15:21;21.70;;;5.03;;
76574;SDS011;65439;50.948;6.988;2023-04-25T04:17:47;19.03;;;6.27;;
76574;SDS011;65439;50.948;6.988;2023-04-25T04:20:13;13.98;;;6.78;;
76574;SDS011;65439;50.948;6.988;2023-04-25T04:22:38;14.98;;;5.97;;
76574;SDS011;65439;50.948;6.988;2023-04-25T04:25:04;9.93;;;4.60;;
76574;SDS011;65439;50.948;6.988;2023-04-25T04:27:30;10.63;;;5.75;;
76574;SDS011;65439;50.948;6.988;2023-04-25T04:29:56;13.77;;;5.40;;
76574;SDS011;65439;50.948;6.988;2023-04-25T04:32:22;12.77;;;5.43;;
76574;SDS011;65439;50.948;6.988;2023-04-25T04:34:48;11.32;;;5.47;;
76574;SDS011;65439;50.948;6.988;2023-04-25T04:37:14;12.00;;;6.72;;
76574;SDS011;65439;50.948;6.988;2023-04-25T04:39:39;13.00;;;6.18;;
76574;SDS011;65439;50.948;6.988;2023-04-25T04:42:05;13.73;;;5.53;;
76574;SDS011;65439;50.948;6.988;2023-04-25T04:44:31;15.10;;;5.53;;
76574;SDS011;65439;50.948;6.988;2023-04-25T04:46:57;13.25;;;5.35;;
76574;SDS011;65439;50.948;6.988;2023-04-25T04:49:23;10.57;;;5.28;;
76574;SDS011;65439;50.948;6.988;2023-04-25T04:51:48;13.73;;;5.33;;
76574;SDS011;65439;50.948;6.988;2023-04-25T04:54:14;15.88;;;5.75;;
76574;SDS011;65439;50.948;6.988;2023-04-25T04:56:40;17.43;;;6.23;;
76574;SDS011;65439;50.948;6.988;2023-04-25T04:59:06;15.65;;;5.15;;
76574;SDS011;65439;50.948;6.988;2023-04-25T05:01:32;12.82;;;4.90;;
76574;SDS011;65439;50.948;6.988;2023-04-25T05:04:00;14.25;;;5.28;;
76574;SDS011;65439;50.948;6.988;2023-04-25T05:06:26;11.48;;;5.88;;
76574;SDS011;65439;50.948;6.988;2023-04-25T05:08:52;10.52;;;5.10;;
76574;SDS011;65439;50.948;6.988;2023-04-25T05:11:17;13.68;;;7.47;;
76574;SDS011;65439;50.948;6.988;2023-04-25T05:13:43;14.18;;;5.50;;
76574;SDS011;65439;50.948;6.988;2023-04-25T05:16:09;13.18;;;4.95;;
76574;SDS011;65439;50.948;6.988;2023-04-25T05:18:34;11.67;;;5.90;;
76574;SDS011;65439;50.948;6.988;2023-04-25T05:21:00;13.45;;;5.15;;
76574;SDS011;65439;50.948;6.988;2023-04-25T05:23:25;14.30;;;5.03;;
76574;SDS011;65439;50.948;6.988;2023-04-25T05:25:52;15.07;;;6.75;;
76574;SDS011;65439;50.948;6.988;2023-04-25T05:28:17;17.07;;;5.50;;
76574;SDS011;65439;50.948;6.988;2023-04-25T05:30:43;36.90;;;4.53;;
76574;SDS011;65439;50.948;6.988;2023-04-25T05:33:08;13.80;;;4.93;;
76574;SDS011;65439;50.948;6.988;2023-04-25T05:35:33;12.43;;;5.07;;
76574;SDS011;65439;50.948;6.988;2023-04-25T05:37:59;15.32;;;6.07;;
76574;SDS011;65439;50.948;6.988;2023-04-25T05:40:24;11.87;;;4.80;;
76574;SDS011;65439;50.948;6.988;2023-04-25T05:42:50;16.02;;;5.45;;
76574;SDS011;65439;50.948;6.988;2023-04-25T05:45:15;16.60;;;5.07;;
76574;SDS011;65439;50.948;6.988;2023-04-25T05:47:42;16.30;;;5.50;;
76574;SDS011;65439;50.948;6.988;2023-04-25T05:50:07;22.03;;;5.60;;
76574;SDS011;65439;50.948;6.988;2023-04-25T05:52:33;15.05;;;4.00;;
76574;SDS011;65439;50.948;6.988;2023-04-25T05:54:58;11.30;;;6.47;;
76574;SDS011;65439;50.948;6.988;2023-04-25T05:57:24;14.32;;;6.35;;
76574;SDS011;65439;50.948;6.988;2023-04-25T05:59:50;13.13;;;5.32;;
76574;SDS011;65439;50.948;6.988;2023-04-25T06:02:16;12.27;;;4.10;;
76574;SDS011;65439;50.948;6.988;2023-04-25T06:04:42;12.35;;;5.18;;
76574;SDS011;65439;50.948;6.988;2023-04-25T06:07:07;14.57;;;5.53;;
76574;SDS011;65439;50.948;6.988;2023-04-25T06:09:33;19.33;;;6.88;;
76574;SDS011;65439;50.948;6.988;2023-04-25T06:11:58;17.50;;;6.00;;
76574;SDS011;65439;50.948;6.988;2023-04-25T06:14:24;20.83;;;8.23;;
76574;SDS011;65439;50.948;6.988;2023-04-25T06:16:49;15.13;;;5.63;;
76574;SDS011;65439;50.948;6.988;2023-04-25T06:19:14;12.37;;;5.23;;
76574;SDS011;65439;50.948;6.988;2023-04-25T06:21:41;19.60;;;5.57;;
76574;SDS011;65439;50.948;6.988;2023-04-25T06:24:08;20.25;;;5.45;;
76574;SDS011;65439;50.948;6.988;2023-04-25T06:26:33;12.93;;;4.90;;
76574;SDS011;65439;50.948;6.988;2023-04-25T06:28:58;13.35;;;5.20;;
76574;SDS011;65439;50.948;6.988;2023-04-25T06:31:24;13.20;;;5.28;;
76574;SDS011;65439;50.948;6.988;2023-04-25T06:33:50;14.68;;;5.40;;
76574;SDS011;65439;50.948;6.988;2023-04-25T06:36:15;17.07;;;5.10;;
76574;SDS011;65439;50.948;6.988;2023-04-25T06:38:40;11.90;;;4.97;;
76574;SDS011;65439;50.948;6.988;2023-04-25T06:41:06;11.50;;;5.27;;
76574;SDS011;65439;50.948;6.988;2023-04-25T06:43:31;12.70;;;4.72;;
76574;SDS011;65439;50.948;6.988;2023-04-25T06:45:58;11.93;;;5.70;;
76574;SDS011;65439;50.948;6.988;2023-04-25T06:48:24;13.40;;;4.32;;
76574;SDS011;65439;50.948;6.988;2023-04-25T06:50:50;15.57;;;4.60;;
76574;SDS011;65439;50.948;6.988;2023-04-25T06:53:15;13.63;;;7.13;;
76574;SDS011;65439;50.948;6.988;2023-04-25T06:55:40;13.80;;;4.38;;
76574;SDS011;65439;50.948;6.988;2023-04-25T06:58:06;14.53;;;4.37;;
76574;SDS011;65439;50.948;6.988;2023-04-25T07:00:32;10.95;;;3.95;;
76574;SDS011;65439;50.948;6.988;2023-04-25T07:02:58;10.20;;;4.88;;
76574;SDS011;65439;50.948;6.988;2023-04-25T07:05:23;12.10;;;5.63;;
76574;SDS011;65439;50.948;6.988;2023-04-25T07:07:49;9.60;;;3.97;;
76574;SDS011;65439;50.948;6.988;2023-04-25T07:10:14;12.63;;;4.75;;
76574;SDS011;65439;50.948;6.988;2023-04-25T07:12:40;12.13;;;4.63;;
76574;SDS011;65439;50.948;6.988;2023-04-25T07:15:05;6.07;;;3.30;;
76574;SDS011;65439;50.948;6.988;2023-04-25T07:17:33;12.00;;;5.25;;
76574;SDS011;65439;50.948;6.988;2023-04-25T07:19:58;7.55;;;3.45;;
76574;SDS011;65439;50.948;6.988;2023-04-25T07:22:24;12.23;;;6.03;;
76574;SDS011;65439;50.948;6.988;2023-04-25T07:24:51;8.48;;;5.05;;
76574;SDS011;65439;50.948;6.988;2023-04-25T07:27:18;9.25;;;4.63;;
76574;SDS011;65439;50.948;6.988;2023-04-25T07:29:43;12.90;;;5.78;;
76574;SDS011;65439;50.948;6.988;2023-04-25T07:32:09;11.52;;;6.07;;
76574;SDS011;65439;50.948;6.988;2023-04-25T07:34:36;14.07;;;5.25;;
76574;SDS011;65439;50.948;6.988;2023-04-25T07:37:03;12.38;;;4.10;;
76574;SDS011;65439;50.948;6.988;2023-04-25T07:39:29;18.17;;;6.00;;
76574;SDS011;65439;50.948;6.988;2023-04-25T07:41:54;11.10;;;4.20;;
76574;SDS011;65439;50.948;6.988;2023-04-25T07:44:19;15.23;;;4.80;;
76574;SDS011;65439;50.948;6.988;2023-04-25T07:46:44;13.63;;;5.70;;
76574;SDS011;65439;50.948;6.988;2023-04-25T07:49:10;11.83;;;5.43;;
76574;SDS011;65439;50.948;6.988;2023-04-25T07:51:35;12.13;;;5.30;;
76574;SDS011;65439;50.948;6.988;2023-04-25T07:54:00;11.63;;;4.67;;
76574;SDS011;65439;50.948;6.988;2023-04-25T07:56:26;11.40;;;5.53;;
76574;SDS011;65439;50.948;6.988;2023-04-25T07:58:51;8.23;;;4.30;;
76574;SDS011;65439;50.948;6.988;2023-04-25T08:01:16;7.87;;;4.40;;
76574;SDS011;65439;50.948;6.988;2023-04-25T08:03:42;12.37;;;5.00;;
76574;SDS011;65439;50.948;6.988;2023-04-25T08:06:07;14.13;;;3.10;;
76574;SDS011;65439;50.948;6.988;2023-04-25T08:08:32;10.83;;;4.73;;
76574;SDS011;65439;50.948;6.988;2023-04-25T08:10:57;11.97;;;4.17;;
76574;SDS011;65439;50.948;6.988;2023-04-25T08:13:23;9.20;;;3.70;;
76574;SDS011;65439;50.948;6.988;2023-04-25T08:15:48;11.90;;;4.23;;
76574;SDS011;65439;50.948;6.988;2023-04-25T08:18:13;7.50;;;3.20;;
76574;SDS011;65439;50.948;6.988;2023-04-25T08:20:39;13.52;;;3.83;;
76574;SDS011;65439;50.948;6.988;2023-04-25T08:23:05;6.63;;;3.17;;
76574;SDS011;65439;50.948;6.988;2023-04-25T08:25:30;4.75;;;2.60;;
76574;SDS011;65439;50.948;6.988;2023-04-25T08:27:56;16.25;;;3.85;;
76574;SDS011;65439;50.948;6.988;2023-04-25T08:30:22;11.82;;;3.55;;
76574;SDS011;65439;50.948;6.988;2023-04-25T08:32:47;6.63;;;4.07;;
76574;SDS011;65439;50.948;6.988;2023-04-25T08:35:12;11.13;;;4.23;;
76574;SDS011;65439;50.948;6.988;2023-04-25T08:37:38;20.10;;;4.22;;
76574;SDS011;65439;50.948;6.988;2023-04-25T08:40:03;7.07;;;4.70;;
76574;SDS011;65439;50.948;6.988;2023-04-25T08:42:31;15.88;;;5.15;;
76574;SDS011;65439;50.948;6.988;2023-04-25T08:44:58;10.85;;;4.00;;
76574;SDS011;65439;50.948;6.988;2023-04-25T08:47:24;10.32;;;3.65;;
76574;SDS011;65439;50.948;6.988;2023-04-25T08:49:49;11.32;;;4.07;;
76574;SDS011;65439;50.948;6.988;2023-04-25T08:52:16;16.92;;;4.22;;
76574;SDS011;65439;50.948;6.988;2023-04-25T08:54:47;7.78;;;3.45;;
76574;SDS011;65439;50.948;6.988;2023-04-25T08:57:13;9.95;;;4.10;;
76574;SDS011;65439;50.948;6.988;2023-04-25T09:02:07;17.70;;;3.38;;
76574;SDS011;65439;50.948;6.988;2023-04-25T09:04:35;12.73;;;3.38;;
76574;SDS011;65439;50.948;6.988;2023-04-25T09:07:00;11.25;;;3.65;;
76574;SDS011;65439;50.948;6.988;2023-04-25T09:09:26;7.83;;;3.60;;
76574;SDS011;65439;50.948;6.988;2023-04-25T09:11:51;14.47;;;3.77;;
76574;SDS011;65439;50.948;6.988;2023-04-25T09:14:19;8.77;;;4.68;;
76574;SDS011;65439;50.948;6.988;2023-04-25T09:21:49;14.00;;;4.03;;
76574;SDS011;65439;50.948;6.988;2023-04-25T09:24:14;12.82;;;3.58;;
76574;SDS011;65439;50.948;6.988;2023-04-25T09:26:40;12.23;;;3.00;;
76574;SDS011;65439;50.948;6.988;2023-04-25T09:29:05;6.70;;;3.33;;
76574;SDS011;65439;50.948;6.988;2023-04-25T09:31:34;9.35;;;3.40;;
76574;SDS011;65439;50.948;6.988;2023-04-25T09:33:59;5.73;;;2.67;;
76574;SDS011;65439;50.948;6.988;2023-04-25T09:36:28;12.85;;;2.80;;
76574;SDS011;65439;50.948;6.988;2023-04-25T09:38:55;6.68;;;2.75;;
76574;SDS011;65439;50.948;6.988;2023-04-25T09:41:24;7.88;;;3.10;;
76574;SDS011;65439;50.948;6.988;2023-04-25T09:43:49;7.13;;;2.42;;
76574;SDS011;65439;50.948;6.988;2023-04-25T09:46:15;4.07;;;2.00;;
76574;SDS011;65439;50.948;6.988;2023-04-25T09:48:43;5.85;;;2.42;;
76574;SDS011;65439;50.948;6.988;2023-04-25T09:51:13;5.05;;;1.85;;
76574;SDS011;65439;50.948;6.988;2023-04-25T09:53:45;7.30;;;2.60;;
76574;SDS011;65439;50.948;6.988;2023-04-25T09:56:12;10.20;;;2.85;;
76574;SDS011;65439;50.948;6.988;2023-04-25T09:58:38;5.35;;;2.53;;
76574;SDS011;65439;50.948;6.988;2023-04-25T10:01:05;7.93;;;2.83;;
76574;SDS011;65439;50.948;6.988;2023-04-25T10:03:33;12.20;;;3.20;;
76574;SDS011;65439;50.948;6.988;2023-04-25T10:06:00;9.73;;;2.45;;
76574;SDS011;65439;50.948;6.988;2023-04-25T10:08:28;6.97;;;2.70;;
76574;SDS011;65439;50.948;6.988;2023-04-25T10:10:58;11.63;;;3.05;;
76574;SDS011;65439;50.948;6.988;2023-04-25T10:13:28;12.05;;;3.40;;
76574;SDS011;65439;50.948;6.988;2023-04-25T10:15:55;5.63;;;2.58;;
76574;SDS011;65439;50.948;6.988;2023-04-25T10:18:22;14.65;;;3.50;;
76574;SDS011;65439;50.948;6.988;2023-04-25T10:20:48;8.30;;;2.90;;
76574;SDS011;65439;50.948;6.988;2023-04-25T10:23:13;6.27;;;2.50;;
76574;SDS011;65439;50.948;6.988;2023-04-25T10:25:40;7.95;;;2.97;;
76574;SDS011;65439;50.948;6.988;2023-04-25T10:28:06;10.63;;;3.28;;
76574;SDS011;65439;50.948;6.988;2023-04-25T10:30:31;10.77;;;2.53;;
76574;SDS011;65439;50.948;6.988;2023-04-25T10:32:58;10.13;;;3.90;;
76574;SDS011;65439;50.948;6.988;2023-04-25T10:35:27;4.10;;;1.80;;
76574;SDS011;65439;50.948;6.988;2023-04-25T10:40:25;5.32;;;2.42;;
76574;SDS011;65439;50.948;6.988;2023-04-25T10:42:51;4.15;;;2.13;;
76574;SDS011;65439;50.948;6.988;2023-04-25T10:45:18;4.57;;;2.28;;
76574;SDS011;65439;50.948;6.988;2023-04-25T10:47:44;4.65;;;1.65;;
76574;SDS011;65439;50.948;6.988;2023-04-25T10:50:10;5.37;;;2.43;;
76574;SDS011;65439;50.948;6.988;2023-04-25T10:52:36;5.95;;;2.20;;
76574;SDS011;65439;50.948;6.988;2023-04-25T10:55:04;3.78;;;2.05;;
76574;SDS011;65439;50.948;6.988;2023-04-25T11:00:17;4.03;;;1.80;;
76574;SDS011;65439;50.948;6.988;2023-04-25T11:02:48;6.75;;;2.42;;
76574;SDS011;65439;50.948;6.988;2023-04-25T11:05:23;5.95;;;2.13;;
76574;SDS011;65439;50.948;6.988;2023-04-25T11:07:55;7.80;;;2.75;;
76574;SDS011;65439;50.948;6.988;2023-04-25T11:10:26;4.53;;;2.40;;
76574;SDS011;65439;50.948;6.988;2023-04-25T11:12:52;6.43;;;2.40;;
76574;SDS011;65439;50.948;6.988;2023-04-25T11:15:17;9.27;;;2.13;;
76574;SDS011;65439;50.948;6.988;2023-04-25T11:17:42;6.47;;;2.00;;
76574;SDS011;65439;50.948;6.988;2023-04-25T11:20:11;7.57;;;2.10;;
76574;SDS011;65439;50.948;6.988;2023-04-25T11:22:37;7.32;;;2.42;;
76574;SDS011;65439;50.948;6.988;2023-04-25T11:25:05;5.97;;;2.45;;
76574;SDS011;65439;50.948;6.988;2023-04-25T11:27:39;2.95;;;1.60;;
76574;SDS011;65439;50.948;6.988;2023-04-25T11:30:15;12.48;;;3.17;;
76574;SDS011;65439;50.948;6.988;2023-04-25T11:32:41;8.52;;;2.42;;
76574;SDS011;65439;50.948;6.988;2023-04-25T11:35:07;6.22;;;2.30;;
76574;SDS011;65439;50.948;6.988;2023-04-25T11:37:33;4.25;;;2.13;;
76574;SDS011;65439;50.948;6.988;2023-04-25T11:39:59;6.57;;;1.98;;
76574;SDS011;65439;50.948;6.988;2023-04-25T11:42:24;7.22;;;1.95;;
76574;SDS011;65439;50.948;6.988;2023-04-25T11:44:50;5.05;;;2.58;;
76574;SDS011;65439;50.948;6.988;2023-04-25T11:47:16;7.97;;;2.28;;
76574;SDS011;65439;50.948;6.988;2023-04-25T11:49:41;4.40;;;1.87;;
76574;SDS011;65439;50.948;6.988;2023-04-25T11:52:06;4.50;;;1.90;;
76574;SDS011;65439;50.948;6.988;2023-04-25T11:54:34;2.97;;;1.85;;
76574;SDS011;65439;50.948;6.988;2023-04-25T11:57:00;4.97;;;2.60;;
76574;SDS011;65439;50.948;6.988;2023-04-25T11:59:26;6.90;;;2.05;;
76574;SDS011;65439;50.948;6.988;2023-04-25T12:01:51;8.30;;;2.17;;
76574;SDS011;65439;50.948;6.988;2023-04-25T12:04:18;5.03;;;1.95;;
76574;SDS011;65439;50.948;6.988;2023-04-25T12:06:47;5.25;;;1.80;;
76574;SDS011;65439;50.948;6.988;2023-04-25T12:09:14;7.43;;;2.65;;
76574;SDS011;65439;50.948;6.988;2023-04-25T12:11:48;6.07;;;2.72;;
76574;SDS011;65439;50.948;6.988;2023-04-25T12:14:22;3.75;;;1.90;;
76574;SDS011;65439;50.948;6.988;2023-04-25T12:16:49;3.33;;;1.58;;
76574;SDS011;65439;50.948;6.988;2023-04-25T12:19:16;6.57;;;2.00;;
76574;SDS011;65439;50.948;6.988;2023-04-25T12:21:43;3.65;;;2.28;;
76574;SDS011;65439;50.948;6.988;2023-04-25T12:24:10;8.93;;;2.42;;
76574;SDS011;65439;50.948;6.988;2023-04-25T12:29:24;4.05;;;2.17;;
76574;SDS011;65439;50.948;6.988;2023-04-25T12:31:51;4.65;;;1.60;;
76574;SDS011;65439;50.948;6.988;2023-04-25T12:34:17;8.38;;;1.60;;
76574;SDS011;65439;50.948;6.988;2023-04-25T12:36:43;6.35;;;1.75;;
76574;SDS011;65439;50.948;6.988;2023-04-25T12:39:08;6.10;;;1.92;;
76574;SDS011;65439;50.948;6.988;2023-04-25T12:41:40;3.53;;;1.50;;
76574;SDS011;65439;50.948;6.988;2023-04-25T12:44:05;5.00;;;1.90;;
76574;SDS011;65439;50.948;6.988;2023-04-25T12:46:31;5.57;;;2.45;;
76574;SDS011;65439;50.948;6.988;2023-04-25T12:48:56;3.33;;;1.48;;
76574;SDS011;65439;50.948;6.988;2023-04-25T12:51:22;4.15;;;2.10;;
76574;SDS011;65439;50.948;6.988;2023-04-25T12:53:49;4.90;;;1.80;;
76574;SDS011;65439;50.948;6.988;2023-04-25T12:56:15;6.97;;;1.80;;
76574;SDS011;65439;50.948;6.988;2023-04-25T12:58:40;4.53;;;2.07;;
76574;SDS011;65439;50.948;6.988;2023-04-25T13:01:06;7.05;;;2.42;;
76574;SDS011;65439;50.948;6.988;2023-04-25T13:03:32;3.38;;;1.60;;
76574;SDS011;65439;50.948;6.988;2023-04-25T13:05:57;2.85;;;1.42;;
76574;SDS011;65439;50.948;6.988;2023-04-25T13:08:23;5.77;;;2.00;;
76574;SDS011;65439;50.948;6.988;2023-04-25T13:10:48;7.87;;;2.30;;
76574;SDS011;65439;50.948;6.988;2023-04-25T13:13:13;5.57;;;2.23;;
76574;SDS011;65439;50.948;6.988;2023-04-25T13:15:38;5.67;;;1.63;;
76574;SDS011;65439;50.948;6.988;2023-04-25T13:18:04;3.10;;;1.80;;
76574;SDS011;65439;50.948;6.988;2023-04-25T13:20:32;2.70;;;1.75;;
76574;SDS011;65439;50.948;6.988;2023-04-25T13:22:58;2.92;;;1.48;;
76574;SDS011;65439;50.948;6.988;2023-04-25T13:25:23;4.25;;;2.10;;
76574;SDS011;65439;50.948;6.988;2023-04-25T13:27:48;3.80;;;1.90;;
76574;SDS011;65439;50.948;6.988;2023-04-25T13:30:14;1.58;;;1.13;;
76574;SDS011;65439;50.948;6.988;2023-04-25T13:35:07;5.18;;;2.85;;
76574;SDS011;65439;50.948;6.988;2023-04-25T13:37:37;5.88;;;2.10;;
76574;SDS011;65439;50.948;6.988;2023-04-25T13:40:03;3.35;;;1.90;;
76574;SDS011;65439;50.948;6.988;2023-04-25T13:42:34;3.28;;;1.25;;
76574;SDS011;65439;50.948;6.988;2023-04-25T13:45:00;2.83;;;1.95;;
76574;SDS011;65439;50.948;6.988;2023-04-25T13:47:25;4.57;;;1.57;;
76574;SDS011;65439;50.948;6.988;2023-04-25T13:49:51;4.05;;;2.05;;
76574;SDS011;65439;50.948;6.988;2023-04-25T13:52:16;2.00;;;1.30;;
76574;SDS011;65439;50.948;6.988;2023-04-25T13:54:42;3.90;;;1.63;;
76574;SDS011;65439;50.948;6.988;2023-04-25T13:57:07;2.03;;;1.40;;
76574;SDS011;65439;50.948;6.988;2023-04-25T13:59:33;2.10;;;1.30;;
76574;SDS011;65439;50.948;6.988;2023-04-25T14:01:58;3.05;;;1.75;;
76574;SDS011;65439;50.948;6.988;2023-04-25T14:04:23;2.30;;;1.38;;
76574;SDS011;65439;50.948;6.988;2023-04-25T14:06:50;2.95;;;1.60;;
76574;SDS011;65439;50.948;6.988;2023-04-25T14:09:15;3.90;;;1.58;;
76574;SDS011;65439;50.948;6.988;2023-04-25T14:11:41;6.07;;;2.83;;
76574;SDS011;65439;50.948;6.988;2023-04-25T14:14:06;5.63;;;2.30;;
76574;SDS011;65439;50.948;6.988;2023-04-25T14:16:31;5.40;;;2.33;;
76574;SDS011;65439;50.948;6.988;2023-04-25T14:19:00;4.68;;;1.95;;
76574;SDS011;65439;50.948;6.988;2023-04-25T14:21:25;2.97;;;1.95;;
76574;SDS011;65439;50.948;6.988;2023-04-25T14:23:52;3.80;;;1.90;;
76574;SDS011;65439;50.948;6.988;2023-04-25T14:26:17;3.65;;;2.20;;
76574;SDS011;65439;50.948;6.988;2023-04-25T14:28:43;3.75;;;2.13;;
76574;SDS011;65439;50.948;6.988;2023-04-25T14:31:08;4.70;;;2.42;;
76574;SDS011;65439;50.948;6.988;2023-04-25T14:33:34;4.88;;;2.35;;
76574;SDS011;65439;50.948;6.988;2023-04-25T14:35:59;3.78;;;2.22;;
76574;SDS011;65439;50.948;6.988;2023-04-25T14:38:25;3.17;;;1.80;;
76574;SDS011;65439;50.948;6.988;2023-04-25T14:40:51;5.80;;;4.13;;
76574;SDS011;65439;50.948;6.988;2023-04-25T14:43:16;3.63;;;2.17;;
76574;SDS011;65439;50.948;6.988;2023-04-25T14:45:42;2.70;;;1.23;;
76574;SDS011;65439;50.948;6.988;2023-04-25T14:48:07;2.30;;;1.42;;
76574;SDS011;65439;50.948;6.988;2023-04-25T14:50:33;2.28;;;0.93;;